sensor_id;sensor_type;location;lat;lon;timestamp;P1;durP1;ratioP1;P2;durP2;ratioP2
10473;SDS011;5284;50.446;7.904;2023-03-20T00:00:35;39.15;;;19.13;;
10473;SDS011;5284;50.446;7.904;2023-03-20T00:05:40;43.45;;;22.42;;
10473;SDS011;5284;50.446;7.904;2023-03-20T00:10:44;50.65;;;23.98;;
10473;SDS011;5284;50.446;7.904;2023-03-20T00:15:49;53.38;;;26.25;;
10473;SDS011;5284;50.446;7.904;2023-03-20T00:20:52;64.97;;;29.80;;
10473;SDS011;5284;50.446;7.904;2023-03-20T00:25:55;61.05;;;28.45;;
10473;SDS011;5284;50.446;7.904;2023-03-20T00:30:59;72.25;;;32.20;;
10473;SDS011;5284;50.446;7.904;2023-03-20T00:36:02;75.53;;;34.70;;
10473;SDS011;5284;50.446;7.904;2023-03-20T00:41:10;70.47;;;33.13;;
10473;SDS011;5284;50.446;7.904;2023-03-20T00:46:24;77.32;;;34.47;;
10473;SDS011;5284;50.446;7.904;2023-03-20T00:51:27;81.88;;;36.42;;
10473;SDS011;5284;50.446;7.904;2023-03-20T00:56:32;85.18;;;38.45;;
10473;SDS011;5284;50.446;7.904;2023-03-20T01:01:40;90.18;;;40.30;;
10473;SDS011;5284;50.446;7.904;2023-03-20T01:06:43;107.63;;;46.15;;
10473;SDS011;5284;50.446;7.904;2023-03-20T01:11:47;112.95;;;46.13;;
10473;SDS011;5284;50.446;7.904;2023-03-20T01:16:53;116.90;;;48.00;;
10473;SDS011;5284;50.446;7.904;2023-03-20T01:21:58;117.15;;;47.67;;
10473;SDS011;5284;50.446;7.904;2023-03-20T01:27:04;119.35;;;50.97;;
10473;SDS011;5284;50.446;7.904;2023-03-20T01:32:16;119.22;;;49.72;;
10473;SDS011;5284;50.446;7.904;2023-03-20T01:37:26;114.35;;;50.40;;
10473;SDS011;5284;50.446;7.904;2023-03-20T01:42:34;137.63;;;54.67;;
10473;SDS011;5284;50.446;7.904;2023-03-20T01:47:38;135.38;;;54.83;;
10473;SDS011;5284;50.446;7.904;2023-03-20T01:52:45;127.38;;;53.50;;
10473;SDS011;5284;50.446;7.904;2023-03-20T01:57:50;134.70;;;49.83;;
10473;SDS011;5284;50.446;7.904;2023-03-20T02:03:04;129.45;;;48.92;;
10473;SDS011;5284;50.446;7.904;2023-03-20T02:08:28;114.80;;;46.65;;
10473;SDS011;5284;50.446;7.904;2023-03-20T02:13:37;113.78;;;43.92;;
10473;SDS011;5284;50.446;7.904;2023-03-20T02:18:43;105.03;;;45.00;;
10473;SDS011;5284;50.446;7.904;2023-03-20T02:35:20;111.00;;;44.13;;
10473;SDS011;5284;50.446;7.904;2023-03-20T02:40:36;121.30;;;43.15;;
10473;SDS011;5284;50.446;7.904;2023-03-20T02:45:47;115.88;;;44.13;;
10473;SDS011;5284;50.446;7.904;2023-03-20T02:50:57;120.28;;;44.00;;
10473;SDS011;5284;50.446;7.904;2023-03-20T02:56:11;112.43;;;47.10;;
10473;SDS011;5284;50.446;7.904;2023-03-20T03:01:21;108.47;;;44.30;;
10473;SDS011;5284;50.446;7.904;2023-03-20T03:06:30;105.03;;;43.75;;
10473;SDS011;5284;50.446;7.904;2023-03-20T03:11:38;111.32;;;45.63;;
10473;SDS011;5284;50.446;7.904;2023-03-20T03:16:47;106.85;;;43.40;;
10473;SDS011;5284;50.446;7.904;2023-03-20T03:21:53;105.70;;;41.90;;
10473;SDS011;5284;50.446;7.904;2023-03-20T03:26:58;102.38;;;43.35;;
10473;SDS011;5284;50.446;7.904;2023-03-20T03:32:04;102.88;;;44.55;;
10473;SDS011;5284;50.446;7.904;2023-03-20T03:37:10;105.65;;;44.25;;
10473;SDS011;5284;50.446;7.904;2023-03-20T03:42:26;95.22;;;39.92;;
10473;SDS011;5284;50.446;7.904;2023-03-20T03:47:35;99.72;;;40.67;;
10473;SDS011;5284;50.446;7.904;2023-03-20T03:52:43;86.72;;;37.05;;
10473;SDS011;5284;50.446;7.904;2023-03-20T03:57:52;97.10;;;39.17;;
10473;SDS011;5284;50.446;7.904;2023-03-20T04:03:00;96.40;;;39.65;;
10473;SDS011;5284;50.446;7.904;2023-03-20T04:08:13;97.50;;;42.78;;
10473;SDS011;5284;50.446;7.904;2023-03-20T04:13:18;76.47;;;36.00;;
10473;SDS011;5284;50.446;7.904;2023-03-20T04:18:22;80.50;;;37.92;;
10473;SDS011;5284;50.446;7.904;2023-03-20T04:23:24;82.45;;;37.78;;
10473;SDS011;5284;50.446;7.904;2023-03-20T04:28:29;82.22;;;38.33;;
10473;SDS011;5284;50.446;7.904;2023-03-20T04:33:56;75.75;;;35.63;;
10473;SDS011;5284;50.446;7.904;2023-03-20T04:39:24;82.03;;;39.30;;
10473;SDS011;5284;50.446;7.904;2023-03-20T04:44:29;77.47;;;34.65;;
10473;SDS011;5284;50.446;7.904;2023-03-20T04:49:32;81.05;;;37.78;;
10473;SDS011;5284;50.446;7.904;2023-03-20T04:54:42;79.30;;;36.65;;
10473;SDS011;5284;50.446;7.904;2023-03-20T04:59:47;84.82;;;39.78;;
10473;SDS011;5284;50.446;7.904;2023-03-20T05:04:53;89.30;;;39.58;;
10473;SDS011;5284;50.446;7.904;2023-03-20T05:09:56;95.50;;;41.75;;
10473;SDS011;5284;50.446;7.904;2023-03-20T05:15:01;92.40;;;41.75;;
10473;SDS011;5284;50.446;7.904;2023-03-20T05:20:23;91.50;;;40.70;;
10473;SDS011;5284;50.446;7.904;2023-03-20T05:25:47;89.60;;;39.85;;
10473;SDS011;5284;50.446;7.904;2023-03-20T05:31:24;85.28;;;39.50;;
10473;SDS011;5284;50.446;7.904;2023-03-20T05:36:46;80.70;;;38.25;;
10473;SDS011;5284;50.446;7.904;2023-03-20T05:42:08;84.95;;;38.63;;
10473;SDS011;5284;50.446;7.904;2023-03-20T05:47:22;93.50;;;40.30;;
10473;SDS011;5284;50.446;7.904;2023-03-20T05:52:54;90.70;;;38.97;;
10473;SDS011;5284;50.446;7.904;2023-03-20T05:58:17;95.75;;;41.55;;
10473;SDS011;5284;50.446;7.904;2023-03-20T06:03:30;91.93;;;41.30;;
10473;SDS011;5284;50.446;7.904;2023-03-20T06:08:44;85.63;;;38.58;;
10473;SDS011;5284;50.446;7.904;2023-03-20T06:13:49;98.15;;;41.00;;
10473;SDS011;5284;50.446;7.904;2023-03-20T06:18:57;85.68;;;38.90;;
10473;SDS011;5284;50.446;7.904;2023-03-20T06:24:00;85.07;;;37.33;;
10473;SDS011;5284;50.446;7.904;2023-03-20T06:29:04;83.60;;;37.10;;
10473;SDS011;5284;50.446;7.904;2023-03-20T06:34:09;90.45;;;37.70;;
10473;SDS011;5284;50.446;7.904;2023-03-20T06:39:18;70.38;;;31.45;;
10473;SDS011;5284;50.446;7.904;2023-03-20T06:44:29;65.32;;;29.88;;
10473;SDS011;5284;50.446;7.904;2023-03-20T06:49:49;68.82;;;30.67;;
10473;SDS011;5284;50.446;7.904;2023-03-20T06:54:54;71.50;;;33.75;;
10473;SDS011;5284;50.446;7.904;2023-03-20T06:59:59;64.72;;;30.52;;
10473;SDS011;5284;50.446;7.904;2023-03-20T07:05:05;64.50;;;28.17;;
10473;SDS011;5284;50.446;7.904;2023-03-20T07:10:10;63.67;;;29.35;;
10473;SDS011;5284;50.446;7.904;2023-03-20T07:15:21;59.78;;;27.35;;
10473;SDS011;5284;50.446;7.904;2023-03-20T07:20:26;59.75;;;24.85;;
10473;SDS011;5284;50.446;7.904;2023-03-20T07:25:29;50.17;;;24.42;;
10473;SDS011;5284;50.446;7.904;2023-03-20T07:30:47;49.80;;;21.48;;
10473;SDS011;5284;50.446;7.904;2023-03-20T07:35:52;52.45;;;22.67;;
10473;SDS011;5284;50.446;7.904;2023-03-20T07:40:56;54.85;;;25.98;;
10473;SDS011;5284;50.446;7.904;2023-03-20T07:46:00;48.13;;;23.30;;
10473;SDS011;5284;50.446;7.904;2023-03-20T07:51:06;43.17;;;20.83;;
10473;SDS011;5284;50.446;7.904;2023-03-20T07:56:16;47.72;;;23.00;;
10473;SDS011;5284;50.446;7.904;2023-03-20T08:01:19;47.22;;;24.92;;
10473;SDS011;5284;50.446;7.904;2023-03-20T08:06:25;46.95;;;21.65;;
10473;SDS011;5284;50.446;7.904;2023-03-20T08:16:37;48.85;;;23.98;;
10473;SDS011;5284;50.446;7.904;2023-03-20T08:21:42;49.67;;;23.40;;
10473;SDS011;5284;50.446;7.904;2023-03-20T08:26:44;51.10;;;21.52;;
10473;SDS011;5284;50.446;7.904;2023-03-20T08:36:55;42.28;;;20.45;;
10473;SDS011;5284;50.446;7.904;2023-03-20T08:41:59;50.13;;;21.40;;
10473;SDS011;5284;50.446;7.904;2023-03-20T08:47:02;47.00;;;20.20;;
10473;SDS011;5284;50.446;7.904;2023-03-20T08:52:10;46.55;;;20.30;;
10473;SDS011;5284;50.446;7.904;2023-03-20T08:57:15;39.83;;;21.88;;
10473;SDS011;5284;50.446;7.904;2023-03-20T09:02:19;34.25;;;19.83;;
10473;SDS011;5284;50.446;7.904;2023-03-20T09:07:25;40.10;;;19.02;;
10473;SDS011;5284;50.446;7.904;2023-03-20T09:12:30;43.13;;;19.15;;
10473;SDS011;5284;50.446;7.904;2023-03-20T09:17:34;39.17;;;19.20;;
10473;SDS011;5284;50.446;7.904;2023-03-20T09:22:42;40.43;;;19.67;;
10473;SDS011;5284;50.446;7.904;2023-03-20T09:27:49;36.40;;;18.58;;
10473;SDS011;5284;50.446;7.904;2023-03-20T09:32:55;28.38;;;14.93;;
10473;SDS011;5284;50.446;7.904;2023-03-20T09:38:00;32.08;;;16.13;;
10473;SDS011;5284;50.446;7.904;2023-03-20T09:43:06;35.70;;;18.30;;
10473;SDS011;5284;50.446;7.904;2023-03-20T09:48:21;35.15;;;16.98;;
10473;SDS011;5284;50.446;7.904;2023-03-20T09:53:32;39.33;;;19.00;;
10473;SDS011;5284;50.446;7.904;2023-03-20T09:58:38;36.72;;;18.92;;
10473;SDS011;5284;50.446;7.904;2023-03-20T10:03:47;39.20;;;19.65;;
10473;SDS011;5284;50.446;7.904;2023-03-20T10:08:59;24.70;;;13.95;;
10473;SDS011;5284;50.446;7.904;2023-03-20T10:14:06;30.58;;;16.15;;
10473;SDS011;5284;50.446;7.904;2023-03-20T10:19:27;33.90;;;17.20;;
10473;SDS011;5284;50.446;7.904;2023-03-20T10:24:33;32.78;;;14.88;;
10473;SDS011;5284;50.446;7.904;2023-03-20T10:29:43;27.40;;;12.80;;
10473;SDS011;5284;50.446;7.904;2023-03-20T10:34:59;23.35;;;10.32;;
10473;SDS011;5284;50.446;7.904;2023-03-20T10:40:19;16.80;;;8.98;;
10473;SDS011;5284;50.446;7.904;2023-03-20T10:45:33;21.88;;;7.18;;
10473;SDS011;5284;50.446;7.904;2023-03-20T10:50:40;14.15;;;6.68;;
10473;SDS011;5284;50.446;7.904;2023-03-20T10:55:49;12.95;;;6.35;;
10473;SDS011;5284;50.446;7.904;2023-03-20T11:00:55;12.13;;;5.97;;
10473;SDS011;5284;50.446;7.904;2023-03-20T11:06:01;10.63;;;5.32;;
10473;SDS011;5284;50.446;7.904;2023-03-20T11:11:13;13.80;;;5.40;;
10473;SDS011;5284;50.446;7.904;2023-03-20T11:16:23;14.35;;;5.00;;
10473;SDS011;5284;50.446;7.904;2023-03-20T11:21:29;10.38;;;5.97;;
10473;SDS011;5284;50.446;7.904;2023-03-20T11:26:37;9.05;;;4.80;;
10473;SDS011;5284;50.446;7.904;2023-03-20T11:31:41;10.43;;;4.63;;
10473;SDS011;5284;50.446;7.904;2023-03-20T11:36:52;12.73;;;4.93;;
10473;SDS011;5284;50.446;7.904;2023-03-20T11:42:22;11.20;;;5.35;;
10473;SDS011;5284;50.446;7.904;2023-03-20T11:47:30;11.13;;;4.75;;
10473;SDS011;5284;50.446;7.904;2023-03-20T11:52:36;14.40;;;5.32;;
10473;SDS011;5284;50.446;7.904;2023-03-20T11:57:45;12.23;;;4.65;;
10473;SDS011;5284;50.446;7.904;2023-03-20T12:02:50;11.40;;;4.50;;
10473;SDS011;5284;50.446;7.904;2023-03-20T12:07:54;10.45;;;2.85;;
10473;SDS011;5284;50.446;7.904;2023-03-20T12:13:01;9.95;;;2.72;;
10473;SDS011;5284;50.446;7.904;2023-03-20T12:18:15;8.95;;;3.20;;
10473;SDS011;5284;50.446;7.904;2023-03-20T12:23:28;8.13;;;3.75;;
10473;SDS011;5284;50.446;7.904;2023-03-20T12:28:37;6.68;;;3.53;;
10473;SDS011;5284;50.446;7.904;2023-03-20T12:33:50;7.97;;;3.53;;
10473;SDS011;5284;50.446;7.904;2023-03-20T12:38:58;6.88;;;3.58;;
10473;SDS011;5284;50.446;7.904;2023-03-20T12:44:14;5.03;;;2.60;;
10473;SDS011;5284;50.446;7.904;2023-03-20T12:49:34;7.25;;;3.05;;
10473;SDS011;5284;50.446;7.904;2023-03-20T13:00:41;9.45;;;4.03;;
10473;SDS011;5284;50.446;7.904;2023-03-20T13:05:51;9.20;;;3.80;;
10473;SDS011;5284;50.446;7.904;2023-03-20T13:11:04;7.68;;;3.75;;
10473;SDS011;5284;50.446;7.904;2023-03-20T13:16:19;15.52;;;4.20;;
10473;SDS011;5284;50.446;7.904;2023-03-20T13:21:36;12.38;;;4.07;;
10473;SDS011;5284;50.446;7.904;2023-03-20T13:26:44;9.32;;;4.75;;
10473;SDS011;5284;50.446;7.904;2023-03-20T13:31:58;7.78;;;3.60;;
10473;SDS011;5284;50.446;7.904;2023-03-20T13:37:12;9.82;;;4.20;;
10473;SDS011;5284;50.446;7.904;2023-03-20T13:42:26;7.18;;;3.47;;
10473;SDS011;5284;50.446;7.904;2023-03-20T13:47:35;13.80;;;3.92;;
10473;SDS011;5284;50.446;7.904;2023-03-20T13:52:41;11.32;;;3.33;;
10473;SDS011;5284;50.446;7.904;2023-03-20T13:58:04;7.47;;;3.80;;
10473;SDS011;5284;50.446;7.904;2023-03-20T14:03:22;7.90;;;3.45;;
10473;SDS011;5284;50.446;7.904;2023-03-20T14:08:32;9.65;;;3.75;;
10473;SDS011;5284;50.446;7.904;2023-03-20T14:13:37;8.18;;;3.28;;
10473;SDS011;5284;50.446;7.904;2023-03-20T14:18:44;6.57;;;3.35;;
10473;SDS011;5284;50.446;7.904;2023-03-20T14:23:50;17.65;;;4.40;;
10473;SDS011;5284;50.446;7.904;2023-03-20T14:29:18;6.30;;;3.58;;
10473;SDS011;5284;50.446;7.904;2023-03-20T14:34:25;13.30;;;3.45;;
10473;SDS011;5284;50.446;7.904;2023-03-20T14:39:33;7.88;;;3.28;;
10473;SDS011;5284;50.446;7.904;2023-03-20T14:50:28;9.02;;;4.15;;
10473;SDS011;5284;50.446;7.904;2023-03-20T14:55:52;12.25;;;3.88;;
10473;SDS011;5284;50.446;7.904;2023-03-20T15:01:07;12.77;;;5.03;;
10473;SDS011;5284;50.446;7.904;2023-03-20T15:06:23;8.90;;;4.00;;
10473;SDS011;5284;50.446;7.904;2023-03-20T15:11:28;13.57;;;4.10;;
10473;SDS011;5284;50.446;7.904;2023-03-20T15:16:35;10.02;;;3.10;;
10473;SDS011;5284;50.446;7.904;2023-03-20T15:21:44;7.57;;;4.18;;
10473;SDS011;5284;50.446;7.904;2023-03-20T15:26:52;18.60;;;5.53;;
10473;SDS011;5284;50.446;7.904;2023-03-20T15:31:58;13.48;;;5.28;;
10473;SDS011;5284;50.446;7.904;2023-03-20T15:37:16;15.73;;;6.00;;
10473;SDS011;5284;50.446;7.904;2023-03-20T15:42:23;11.50;;;5.25;;
10473;SDS011;5284;50.446;7.904;2023-03-20T15:47:27;11.52;;;5.10;;
10473;SDS011;5284;50.446;7.904;2023-03-20T15:52:34;14.02;;;4.35;;
10473;SDS011;5284;50.446;7.904;2023-03-20T15:57:43;16.48;;;5.32;;
10473;SDS011;5284;50.446;7.904;2023-03-20T16:02:53;15.50;;;4.47;;
10473;SDS011;5284;50.446;7.904;2023-03-20T16:08:11;15.30;;;5.93;;
10473;SDS011;5284;50.446;7.904;2023-03-20T16:13:15;24.42;;;8.82;;
10473;SDS011;5284;50.446;7.904;2023-03-20T16:18:19;17.77;;;4.40;;
10473;SDS011;5284;50.446;7.904;2023-03-20T16:23:28;38.58;;;11.95;;
10473;SDS011;5284;50.446;7.904;2023-03-20T16:28:37;23.73;;;8.60;;
10473;SDS011;5284;50.446;7.904;2023-03-20T16:33:44;22.10;;;6.78;;
10473;SDS011;5284;50.446;7.904;2023-03-20T16:38:56;14.38;;;5.65;;
10473;SDS011;5284;50.446;7.904;2023-03-20T16:44:05;9.43;;;3.80;;
10473;SDS011;5284;50.446;7.904;2023-03-20T16:49:36;11.63;;;4.22;;
10473;SDS011;5284;50.446;7.904;2023-03-20T16:54:56;13.30;;;4.32;;
10473;SDS011;5284;50.446;7.904;2023-03-20T17:00:02;12.57;;;4.63;;
10473;SDS011;5284;50.446;7.904;2023-03-20T17:05:10;15.90;;;4.50;;
10473;SDS011;5284;50.446;7.904;2023-03-20T17:10:18;9.10;;;4.35;;
10473;SDS011;5284;50.446;7.904;2023-03-20T17:15:23;25.27;;;8.82;;
10473;SDS011;5284;50.446;7.904;2023-03-20T17:20:26;14.27;;;3.67;;
10473;SDS011;5284;50.446;7.904;2023-03-20T17:25:33;21.37;;;5.37;;
10473;SDS011;5284;50.446;7.904;2023-03-20T17:30:37;22.80;;;8.63;;
10473;SDS011;5284;50.446;7.904;2023-03-20T17:35:47;22.70;;;10.05;;
10473;SDS011;5284;50.446;7.904;2023-03-20T17:40:52;13.23;;;5.68;;
10473;SDS011;5284;50.446;7.904;2023-03-20T17:45:54;17.15;;;4.55;;
10473;SDS011;5284;50.446;7.904;2023-03-20T17:50:58;15.68;;;3.30;;
10473;SDS011;5284;50.446;7.904;2023-03-20T17:56:04;6.07;;;2.20;;
10473;SDS011;5284;50.446;7.904;2023-03-20T18:01:12;9.02;;;2.22;;
10473;SDS011;5284;50.446;7.904;2023-03-20T18:06:24;11.05;;;1.98;;
10473;SDS011;5284;50.446;7.904;2023-03-20T18:11:36;10.18;;;4.22;;
10473;SDS011;5284;50.446;7.904;2023-03-20T18:16:39;9.82;;;2.15;;
10473;SDS011;5284;50.446;7.904;2023-03-20T18:21:44;12.18;;;3.28;;
10473;SDS011;5284;50.446;7.904;2023-03-20T18:26:48;13.02;;;3.50;;
10473;SDS011;5284;50.446;7.904;2023-03-20T18:31:54;19.35;;;7.55;;
10473;SDS011;5284;50.446;7.904;2023-03-20T18:36:57;9.38;;;2.97;;
10473;SDS011;5284;50.446;7.904;2023-03-20T18:42:02;11.32;;;2.35;;
10473;SDS011;5284;50.446;7.904;2023-03-20T18:47:05;14.52;;;2.42;;
10473;SDS011;5284;50.446;7.904;2023-03-20T18:52:08;7.80;;;2.03;;
10473;SDS011;5284;50.446;7.904;2023-03-20T18:57:17;19.77;;;7.60;;
10473;SDS011;5284;50.446;7.904;2023-03-20T19:02:20;13.15;;;6.55;;
10473;SDS011;5284;50.446;7.904;2023-03-20T19:07:23;15.00;;;4.57;;
10473;SDS011;5284;50.446;7.904;2023-03-20T19:12:27;21.20;;;5.53;;
10473;SDS011;5284;50.446;7.904;2023-03-20T19:17:31;11.63;;;3.78;;
10473;SDS011;5284;50.446;7.904;2023-03-20T19:22:34;16.75;;;3.67;;
10473;SDS011;5284;50.446;7.904;2023-03-20T19:27:38;12.55;;;3.25;;
10473;SDS011;5284;50.446;7.904;2023-03-20T19:32:44;12.43;;;3.75;;
10473;SDS011;5284;50.446;7.904;2023-03-20T19:37:47;9.73;;;3.13;;
10473;SDS011;5284;50.446;7.904;2023-03-20T19:42:51;7.80;;;2.80;;
10473;SDS011;5284;50.446;7.904;2023-03-20T19:48:10;14.25;;;3.35;;
10473;SDS011;5284;50.446;7.904;2023-03-20T19:53:16;9.82;;;3.17;;
10473;SDS011;5284;50.446;7.904;2023-03-20T19:58:24;9.57;;;3.88;;
10473;SDS011;5284;50.446;7.904;2023-03-20T20:03:27;9.00;;;2.70;;
10473;SDS011;5284;50.446;7.904;2023-03-20T20:08:32;10.63;;;4.05;;
10473;SDS011;5284;50.446;7.904;2023-03-20T20:13:49;13.48;;;4.20;;
10473;SDS011;5284;50.446;7.904;2023-03-20T20:19:10;12.77;;;3.67;;
10473;SDS011;5284;50.446;7.904;2023-03-20T20:24:15;20.45;;;8.15;;
10473;SDS011;5284;50.446;7.904;2023-03-20T20:29:21;15.13;;;2.65;;
10473;SDS011;5284;50.446;7.904;2023-03-20T20:34:25;15.50;;;2.40;;
10473;SDS011;5284;50.446;7.904;2023-03-20T20:39:51;17.08;;;3.55;;
10473;SDS011;5284;50.446;7.904;2023-03-20T20:44:56;13.85;;;4.35;;
10473;SDS011;5284;50.446;7.904;2023-03-20T20:50:00;17.67;;;3.50;;
10473;SDS011;5284;50.446;7.904;2023-03-20T20:55:04;12.07;;;3.15;;
10473;SDS011;5284;50.446;7.904;2023-03-20T21:00:24;9.25;;;2.72;;
10473;SDS011;5284;50.446;7.904;2023-03-20T21:05:49;13.05;;;2.85;;
10473;SDS011;5284;50.446;7.904;2023-03-20T21:10:52;12.20;;;3.08;;
10473;SDS011;5284;50.446;7.904;2023-03-20T21:15:57;21.27;;;3.75;;
10473;SDS011;5284;50.446;7.904;2023-03-20T21:21:05;18.60;;;5.28;;
10473;SDS011;5284;50.446;7.904;2023-03-20T21:26:09;12.88;;;4.22;;
10473;SDS011;5284;50.446;7.904;2023-03-20T21:31:21;20.52;;;5.15;;
10473;SDS011;5284;50.446;7.904;2023-03-20T21:36:30;20.98;;;5.00;;
10473;SDS011;5284;50.446;7.904;2023-03-20T21:41:35;15.60;;;5.85;;
10473;SDS011;5284;50.446;7.904;2023-03-20T21:46:40;21.05;;;5.20;;
10473;SDS011;5284;50.446;7.904;2023-03-20T21:52:03;13.88;;;5.60;;
10473;SDS011;5284;50.446;7.904;2023-03-20T21:57:28;11.98;;;4.78;;
10473;SDS011;5284;50.446;7.904;2023-03-20T22:02:58;22.50;;;4.47;;
10473;SDS011;5284;50.446;7.904;2023-03-20T22:08:11;14.57;;;3.90;;
10473;SDS011;5284;50.446;7.904;2023-03-20T22:13:36;14.80;;;3.28;;
10473;SDS011;5284;50.446;7.904;2023-03-20T22:19:01;12.55;;;3.38;;
10473;SDS011;5284;50.446;7.904;2023-03-20T22:24:25;10.95;;;2.97;;
10473;SDS011;5284;50.446;7.904;2023-03-20T22:29:48;11.52;;;3.22;;
10473;SDS011;5284;50.446;7.904;2023-03-20T22:35:13;11.07;;;3.67;;
10473;SDS011;5284;50.446;7.904;2023-03-20T22:40:36;10.63;;;3.05;;
10473;SDS011;5284;50.446;7.904;2023-03-20T22:46:00;9.60;;;3.10;;
10473;SDS011;5284;50.446;7.904;2023-03-20T22:51:25;16.65;;;3.83;;
10473;SDS011;5284;50.446;7.904;2023-03-20T22:56:41;27.27;;;3.72;;
10473;SDS011;5284;50.446;7.904;2023-03-20T23:01:45;12.15;;;2.95;;
10473;SDS011;5284;50.446;7.904;2023-03-20T23:06:49;15.68;;;3.13;;
10473;SDS011;5284;50.446;7.904;2023-03-20T23:11:52;12.07;;;2.90;;
10473;SDS011;5284;50.446;7.904;2023-03-20T23:16:55;18.88;;;4.40;;
10473;SDS011;5284;50.446;7.904;2023-03-20T23:22:00;29.23;;;4.70;;
10473;SDS011;5284;50.446;7.904;2023-03-20T23:27:04;12.45;;;3.38;;
10473;SDS011;5284;50.446;7.904;2023-03-20T23:32:07;23.20;;;4.88;;
10473;SDS011;5284;50.446;7.904;2023-03-20T23:37:18;21.17;;;5.35;;
10473;SDS011;5284;50.446;7.904;2023-03-20T23:42:21;16.10;;;4.78;;
10473;SDS011;5284;50.446;7.904;2023-03-20T23:47:31;21.60;;;5.80;;
10473;SDS011;5284;50.446;7.904;2023-03-20T23:52:46;24.85;;;6.30;;
10473;SDS011;5284;50.446;7.904;2023-03-20T23:58:03;21.92;;;5.30;;
